sensor_id;sensor_type;location;lat;lon;timestamp;pressure;altitude;pressure_sealevel;temperature;humidity
35224;BME280;21367;51.930;8.112;2023-02-22T00:01:22;101024.97;;;8.02;100.00
35224;BME280;21367;51.930;8.112;2023-02-22T00:06:35;101018.97;;;7.86;100.00
35224;BME280;21367;51.930;8.112;2023-02-22T00:11:44;101017.28;;;7.72;100.00
35224;BME280;21367;51.930;8.112;2023-02-22T00:16:48;101014.09;;;7.47;100.00
35224;BME280;21367;51.930;8.112;2023-02-22T00:21:53;101008.63;;;8.15;100.00
35224;BME280;21367;51.930;8.112;2023-02-22T00:27:00;101004.91;;;8.39;100.00
35224;BME280;21367;51.930;8.112;2023-02-22T00:32:04;100991.03;;;8.35;100.00
35224;BME280;21367;51.930;8.112;2023-02-22T00:37:09;100989.44;;;8.38;100.00
35224;BME280;21367;51.930;8.112;2023-02-22T00:42:16;100984.41;;;8.39;100.00
35224;BME280;21367;51.930;8.112;2023-02-22T00:47:20;100977.44;;;8.68;100.00
35224;BME280;21367;51.930;8.112;2023-02-22T00:52:26;100973.75;;;8.31;100.00
35224;BME280;21367;51.930;8.112;2023-02-22T00:57:33;100966.66;;;8.42;100.00
35224;BME280;21367;51.930;8.112;2023-02-22T01:02:36;100956.69;;;8.47;100.00
35224;BME280;21367;51.930;8.112;2023-02-22T01:07:41;100943.81;;;8.30;100.00
35224;BME280;21367;51.930;8.112;2023-02-22T01:12:48;100945.34;;;8.12;100.00
35224;BME280;21367;51.930;8.112;2023-02-22T01:17:52;100942.56;;;7.78;100.00
35224;BME280;21367;51.930;8.112;2023-02-22T01:23:00;100939.22;;;7.79;100.00
35224;BME280;21367;51.930;8.112;2023-02-22T01:28:08;100938.78;;;7.71;100.00
35224;BME280;21367;51.930;8.112;2023-02-22T01:33:13;100922.47;;;7.69;100.00
35224;BME280;21367;51.930;8.112;2023-02-22T01:38:18;100924.06;;;7.52;100.00
35224;BME280;21367;51.930;8.112;2023-02-22T01:43:28;100926.28;;;7.46;100.00
35224;BME280;21367;51.930;8.112;2023-02-22T01:48:36;100919.53;;;7.18;100.00
35224;BME280;21367;51.930;8.112;2023-02-22T01:53:47;100911.72;;;7.30;100.00
35224;BME280;21367;51.930;8.112;2023-02-22T01:58:58;100907.50;;;6.88;100.00
35224;BME280;21367;51.930;8.112;2023-02-22T02:04:05;100904.94;;;6.88;100.00
35224;BME280;21367;51.930;8.112;2023-02-22T02:09:15;100894.81;;;6.89;100.00
35224;BME280;21367;51.930;8.112;2023-02-22T02:14:25;100883.44;;;6.84;100.00
35224;BME280;21367;51.930;8.112;2023-02-22T02:19:40;100876.16;;;6.90;100.00
35224;BME280;21367;51.930;8.112;2023-02-22T02:30:42;100876.66;;;6.85;100.00
35224;BME280;21367;51.930;8.112;2023-02-22T02:36:00;100873.66;;;6.77;100.00
35224;BME280;21367;51.930;8.112;2023-02-22T02:41:09;100872.81;;;6.63;100.00
35224;BME280;21367;51.930;8.112;2023-02-22T02:46:20;100869.94;;;6.72;100.00
35224;BME280;21367;51.930;8.112;2023-02-22T02:51:33;100868.72;;;6.80;100.00
35224;BME280;21367;51.930;8.112;2023-02-22T02:56:39;100866.09;;;6.51;100.00
35224;BME280;21367;51.930;8.112;2023-02-22T03:01:52;100864.69;;;6.99;100.00
35224;BME280;21367;51.930;8.112;2023-02-22T03:12:47;100841.50;;;6.95;100.00
35224;BME280;21367;51.930;8.112;2023-02-22T03:18:01;100842.38;;;6.81;100.00
35224;BME280;21367;51.930;8.112;2023-02-22T03:23:14;100835.13;;;6.59;100.00
35224;BME280;21367;51.930;8.112;2023-02-22T03:28:28;100836.50;;;6.97;100.00
35224;BME280;21367;51.930;8.112;2023-02-22T03:33:38;100830.97;;;7.19;100.00
35224;BME280;21367;51.930;8.112;2023-02-22T03:38:44;100831.41;;;7.12;100.00
35224;BME280;21367;51.930;8.112;2023-02-22T03:43:53;100825.56;;;7.29;100.00
35224;BME280;21367;51.930;8.112;2023-02-22T03:49:01;100825.03;;;6.76;100.00
35224;BME280;21367;51.930;8.112;2023-02-22T03:54:11;100831.03;;;6.91;100.00
35224;BME280;21367;51.930;8.112;2023-02-22T03:59:22;100829.28;;;6.90;100.00
35224;BME280;21367;51.930;8.112;2023-02-22T04:04:27;100826.19;;;6.81;100.00
35224;BME280;21367;51.930;8.112;2023-02-22T04:09:31;100822.94;;;7.13;100.00
35224;BME280;21367;51.930;8.112;2023-02-22T04:14:38;100812.19;;;6.74;100.00
35224;BME280;21367;51.930;8.112;2023-02-22T04:19:42;100825.81;;;6.75;100.00
35224;BME280;21367;51.930;8.112;2023-02-22T04:24:47;100817.09;;;6.71;100.00
35224;BME280;21367;51.930;8.112;2023-02-22T04:29:54;100816.22;;;6.85;100.00
35224;BME280;21367;51.930;8.112;2023-02-22T04:34:58;100816.56;;;6.34;100.00
35224;BME280;21367;51.930;8.112;2023-02-22T04:40:05;100814.78;;;5.91;100.00
35224;BME280;21367;51.930;8.112;2023-02-22T04:45:14;100812.97;;;6.45;100.00
35224;BME280;21367;51.930;8.112;2023-02-22T04:50:18;100801.44;;;6.52;100.00
35224;BME280;21367;51.930;8.112;2023-02-22T04:55:22;100804.63;;;6.47;100.00
35224;BME280;21367;51.930;8.112;2023-02-22T05:00:28;100801.63;;;5.85;100.00
35224;BME280;21367;51.930;8.112;2023-02-22T05:05:35;100799.81;;;6.24;100.00
35224;BME280;21367;51.930;8.112;2023-02-22T05:10:39;100795.78;;;6.42;100.00
35224;BME280;21367;51.930;8.112;2023-02-22T05:15:45;100799.22;;;6.28;100.00
35224;BME280;21367;51.930;8.112;2023-02-22T05:20:50;100792.38;;;5.59;100.00
35224;BME280;21367;51.930;8.112;2023-02-22T05:25:53;100794.13;;;5.47;100.00
35224;BME280;21367;51.930;8.112;2023-02-22T05:31:00;100789.22;;;5.63;100.00
35224;BME280;21367;51.930;8.112;2023-02-22T05:36:05;100787.34;;;5.61;100.00
35224;BME280;21367;51.930;8.112;2023-02-22T05:41:11;100787.56;;;5.37;100.00
35224;BME280;21367;51.930;8.112;2023-02-22T05:46:17;100780.69;;;5.23;100.00
35224;BME280;21367;51.930;8.112;2023-02-22T05:51:22;100777.47;;;5.12;100.00
35224;BME280;21367;51.930;8.112;2023-02-22T05:56:27;100780.69;;;4.58;100.00
35224;BME280;21367;51.930;8.112;2023-02-22T06:01:34;100765.81;;;3.89;100.00
35224;BME280;21367;51.930;8.112;2023-02-22T06:06:37;100772.44;;;4.24;100.00
35224;BME280;21367;51.930;8.112;2023-02-22T06:11:41;100768.34;;;4.26;100.00
35224;BME280;21367;51.930;8.112;2023-02-22T06:16:53;100765.69;;;3.99;100.00
35224;BME280;21367;51.930;8.112;2023-02-22T06:21:57;100767.06;;;4.57;100.00
35224;BME280;21367;51.930;8.112;2023-02-22T06:27:04;100767.00;;;4.31;100.00
35224;BME280;21367;51.930;8.112;2023-02-22T06:32:10;100770.59;;;4.59;100.00
35224;BME280;21367;51.930;8.112;2023-02-22T06:37:16;100763.47;;;5.19;100.00
35224;BME280;21367;51.930;8.112;2023-02-22T06:42:20;100771.66;;;4.88;100.00
35224;BME280;21367;51.930;8.112;2023-02-22T06:47:27;100774.19;;;5.01;100.00
35224;BME280;21367;51.930;8.112;2023-02-22T06:52:31;100774.09;;;4.73;100.00
35224;BME280;21367;51.930;8.112;2023-02-22T06:57:34;100772.00;;;4.68;100.00
35224;BME280;21367;51.930;8.112;2023-02-22T07:02:41;100781.34;;;4.94;100.00
35224;BME280;21367;51.930;8.112;2023-02-22T07:07:45;100777.25;;;4.32;100.00
35224;BME280;21367;51.930;8.112;2023-02-22T07:12:49;100777.88;;;4.41;100.00
35224;BME280;21367;51.930;8.112;2023-02-22T07:17:56;100773.75;;;4.69;100.00
35224;BME280;21367;51.930;8.112;2023-02-22T07:23:00;100774.34;;;3.78;100.00
35224;BME280;21367;51.930;8.112;2023-02-22T07:28:04;100783.72;;;5.04;100.00
35224;BME280;21367;51.930;8.112;2023-02-22T07:33:12;100780.88;;;5.26;100.00
35224;BME280;21367;51.930;8.112;2023-02-22T07:38:16;100776.06;;;5.57;100.00
35224;BME280;21367;51.930;8.112;2023-02-22T07:43:22;100776.59;;;4.98;100.00
35224;BME280;21367;51.930;8.112;2023-02-22T07:48:30;100770.09;;;5.56;100.00
35224;BME280;21367;51.930;8.112;2023-02-22T07:53:34;100771.97;;;5.59;100.00
35224;BME280;21367;51.930;8.112;2023-02-22T07:58:38;100770.81;;;5.41;100.00
35224;BME280;21367;51.930;8.112;2023-02-22T08:03:44;100772.47;;;5.53;100.00
35224;BME280;21367;51.930;8.112;2023-02-22T08:08:48;100776.47;;;6.18;100.00
35224;BME280;21367;51.930;8.112;2023-02-22T08:13:51;100759.28;;;6.43;100.00
35224;BME280;21367;51.930;8.112;2023-02-22T08:18:58;100758.44;;;6.15;100.00
35224;BME280;21367;51.930;8.112;2023-02-22T08:24:02;100758.81;;;6.08;100.00
35224;BME280;21367;51.930;8.112;2023-02-22T08:29:06;100754.41;;;6.18;100.00
35224;BME280;21367;51.930;8.112;2023-02-22T08:34:12;100746.53;;;6.43;100.00
35224;BME280;21367;51.930;8.112;2023-02-22T08:39:16;100748.84;;;6.25;100.00
35224;BME280;21367;51.930;8.112;2023-02-22T08:44:20;100742.69;;;6.65;100.00
35224;BME280;21367;51.930;8.112;2023-02-22T08:49:27;100738.47;;;7.26;100.00
35224;BME280;21367;51.930;8.112;2023-02-22T08:54:30;100732.19;;;6.90;100.00
35224;BME280;21367;51.930;8.112;2023-02-22T08:59:34;100727.16;;;7.06;100.00
35224;BME280;21367;51.930;8.112;2023-02-22T09:04:41;100734.31;;;6.97;100.00
35224;BME280;21367;51.930;8.112;2023-02-22T09:09:45;100720.06;;;7.32;100.00
35224;BME280;21367;51.930;8.112;2023-02-22T09:14:48;100713.50;;;7.68;100.00
35224;BME280;21367;51.930;8.112;2023-02-22T09:19:55;100705.97;;;7.24;100.00
35224;BME280;21367;51.930;8.112;2023-02-22T09:24:59;100702.75;;;7.90;100.00
35224;BME280;21367;51.930;8.112;2023-02-22T09:30:03;100696.97;;;7.94;100.00
35224;BME280;21367;51.930;8.112;2023-02-22T09:35:13;100692.88;;;7.98;100.00
35224;BME280;21367;51.930;8.112;2023-02-22T09:40:18;100686.41;;;8.04;100.00
35224;BME280;21367;51.930;8.112;2023-02-22T09:45:31;100690.13;;;8.60;100.00
35224;BME280;21367;51.930;8.112;2023-02-22T09:50:40;100682.34;;;8.58;100.00
35224;BME280;21367;51.930;8.112;2023-02-22T09:55:47;100682.63;;;8.81;100.00
35224;BME280;21367;51.930;8.112;2023-02-22T10:00:56;100675.19;;;9.05;100.00
35224;BME280;21367;51.930;8.112;2023-02-22T10:06:10;100675.72;;;9.16;100.00
35224;BME280;21367;51.930;8.112;2023-02-22T10:11:26;100667.13;;;9.53;100.00
35224;BME280;21367;51.930;8.112;2023-02-22T10:16:35;100668.31;;;9.59;100.00
35224;BME280;21367;51.930;8.112;2023-02-22T10:22:05;100667.19;;;9.72;100.00
35224;BME280;21367;51.930;8.112;2023-02-22T10:27:18;100661.69;;;10.23;100.00
35224;BME280;21367;51.930;8.112;2023-02-22T10:32:26;100657.66;;;10.49;98.98
35224;BME280;21367;51.930;8.112;2023-02-22T10:37:34;100652.72;;;10.74;99.00
35224;BME280;21367;51.930;8.112;2023-02-22T10:42:37;100648.25;;;10.70;98.79
35224;BME280;21367;51.930;8.112;2023-02-22T10:47:41;100645.75;;;10.72;95.33
35224;BME280;21367;51.930;8.112;2023-02-22T10:52:48;100646.69;;;11.40;91.03
35224;BME280;21367;51.930;8.112;2023-02-22T10:57:59;100644.97;;;11.63;88.94
35224;BME280;21367;51.930;8.112;2023-02-22T11:03:18;100633.69;;;11.37;92.41
35224;BME280;21367;51.930;8.112;2023-02-22T11:08:28;100632.88;;;12.08;90.07
35224;BME280;21367;51.930;8.112;2023-02-22T11:13:36;100628.63;;;11.62;92.13
35224;BME280;21367;51.930;8.112;2023-02-22T11:18:40;100625.88;;;12.04;89.48
35224;BME280;21367;51.930;8.112;2023-02-22T11:23:48;100612.69;;;12.46;88.08
35224;BME280;21367;51.930;8.112;2023-02-22T11:28:52;100605.41;;;12.60;86.50
35224;BME280;21367;51.930;8.112;2023-02-22T11:33:59;100607.88;;;12.84;87.00
35224;BME280;21367;51.930;8.112;2023-02-22T11:39:20;100595.22;;;13.20;83.65
35224;BME280;21367;51.930;8.112;2023-02-22T11:44:27;100589.97;;;12.88;84.86
35224;BME280;21367;51.930;8.112;2023-02-22T11:49:33;100587.88;;;13.32;84.71
35224;BME280;21367;51.930;8.112;2023-02-22T11:54:59;100578.44;;;13.64;81.47
35224;BME280;21367;51.930;8.112;2023-02-22T12:00:14;100574.50;;;14.45;75.62
35224;BME280;21367;51.930;8.112;2023-02-22T12:05:33;100568.84;;;13.92;79.13
35224;BME280;21367;51.930;8.112;2023-02-22T12:10:54;100560.31;;;13.95;77.16
35224;BME280;21367;51.930;8.112;2023-02-22T12:16:06;100548.63;;;14.45;73.73
35224;BME280;21367;51.930;8.112;2023-02-22T12:21:15;100545.25;;;14.13;70.99
35224;BME280;21367;51.930;8.112;2023-02-22T12:26:29;100534.41;;;14.26;72.50
35224;BME280;21367;51.930;8.112;2023-02-22T12:31:38;100538.00;;;14.69;71.53
35224;BME280;21367;51.930;8.112;2023-02-22T12:36:47;100540.97;;;14.86;67.85
35224;BME280;21367;51.930;8.112;2023-02-22T12:41:57;100528.03;;;15.28;68.48
35224;BME280;21367;51.930;8.112;2023-02-22T12:47:04;100535.19;;;15.40;63.64
35224;BME280;21367;51.930;8.112;2023-02-22T12:52:13;100526.88;;;15.13;66.82
35224;BME280;21367;51.930;8.112;2023-02-22T12:57:29;100529.69;;;15.67;66.28
35224;BME280;21367;51.930;8.112;2023-02-22T13:02:42;100527.53;;;15.45;65.62
35224;BME280;21367;51.930;8.112;2023-02-22T13:07:58;100523.91;;;15.37;63.63
35224;BME280;21367;51.930;8.112;2023-02-22T13:13:15;100520.97;;;15.64;64.48
35224;BME280;21367;51.930;8.112;2023-02-22T13:18:26;100508.69;;;16.57;61.94
35224;BME280;21367;51.930;8.112;2023-02-22T13:23:38;100503.47;;;15.52;65.77
35224;BME280;21367;51.930;8.112;2023-02-22T13:28:50;100499.13;;;16.53;63.23
35224;BME280;21367;51.930;8.112;2023-02-22T13:34:13;100498.06;;;16.41;58.11
35224;BME280;21367;51.930;8.112;2023-02-22T13:39:43;100495.25;;;16.85;57.50
35224;BME280;21367;51.930;8.112;2023-02-22T13:45:21;100491.09;;;16.37;57.05
35224;BME280;21367;51.930;8.112;2023-02-22T13:50:57;100490.56;;;16.60;57.02
35224;BME280;21367;51.930;8.112;2023-02-22T13:56:06;100484.56;;;16.06;59.39
35224;BME280;21367;51.930;8.112;2023-02-22T14:01:36;100482.91;;;15.61;58.18
35224;BME280;21367;51.930;8.112;2023-02-22T14:06:41;100479.72;;;15.75;60.61
35224;BME280;21367;51.930;8.112;2023-02-22T14:11:45;100476.75;;;16.61;57.06
35224;BME280;21367;51.930;8.112;2023-02-22T14:17:36;100472.44;;;16.63;58.44
35224;BME280;21367;51.930;8.112;2023-02-22T14:22:41;100477.59;;;16.02;58.03
35224;BME280;21367;51.930;8.112;2023-02-22T14:27:45;100471.34;;;15.89;57.59
35224;BME280;21367;51.930;8.112;2023-02-22T14:32:51;100467.75;;;16.37;58.31
35224;BME280;21367;51.930;8.112;2023-02-22T14:37:57;100464.69;;;16.07;56.85
35224;BME280;21367;51.930;8.112;2023-02-22T14:43:08;100469.94;;;16.08;54.19
35224;BME280;21367;51.930;8.112;2023-02-22T14:48:21;100463.75;;;16.58;54.98
35224;BME280;21367;51.930;8.112;2023-02-22T14:53:34;100459.47;;;16.61;56.65
35224;BME280;21367;51.930;8.112;2023-02-22T14:58:42;100453.91;;;17.01;55.88
35224;BME280;21367;51.930;8.112;2023-02-22T15:03:50;100454.41;;;17.47;53.40
35224;BME280;21367;51.930;8.112;2023-02-22T15:09:06;100454.66;;;16.92;54.69
35224;BME280;21367;51.930;8.112;2023-02-22T15:14:16;100457.22;;;16.87;54.98
35224;BME280;21367;51.930;8.112;2023-02-22T15:19:26;100457.00;;;16.71;56.57
35224;BME280;21367;51.930;8.112;2023-02-22T15:24:35;100450.72;;;15.95;57.11
35224;BME280;21367;51.930;8.112;2023-02-22T15:29:42;100455.84;;;15.44;59.77
35224;BME280;21367;51.930;8.112;2023-02-22T15:34:49;100451.16;;;14.82;61.97
35224;BME280;21367;51.930;8.112;2023-02-22T15:40:05;100452.16;;;14.48;62.38
35224;BME280;21367;51.930;8.112;2023-02-22T15:45:16;100453.53;;;14.70;64.32
35224;BME280;21367;51.930;8.112;2023-02-22T15:50:24;100461.03;;;14.57;67.00
35224;BME280;21367;51.930;8.112;2023-02-22T15:55:30;100461.16;;;14.26;66.95
35224;BME280;21367;51.930;8.112;2023-02-22T16:00:37;100464.50;;;13.87;72.83
35224;BME280;21367;51.930;8.112;2023-02-22T16:05:44;100468.94;;;13.58;74.06
35224;BME280;21367;51.930;8.112;2023-02-22T16:10:57;100463.81;;;13.26;77.35
35224;BME280;21367;51.930;8.112;2023-02-22T16:16:04;100465.34;;;13.21;79.49
35224;BME280;21367;51.930;8.112;2023-02-22T16:21:13;100471.34;;;12.90;80.93
35224;BME280;21367;51.930;8.112;2023-02-22T16:26:24;100474.31;;;12.73;82.09
35224;BME280;21367;51.930;8.112;2023-02-22T16:31:30;100468.03;;;12.64;81.57
35224;BME280;21367;51.930;8.112;2023-02-22T16:36:41;100468.22;;;12.41;81.63
35224;BME280;21367;51.930;8.112;2023-02-22T16:41:45;100471.72;;;12.16;82.99
35224;BME280;21367;51.930;8.112;2023-02-22T16:46:49;100475.50;;;12.00;84.15
35224;BME280;21367;51.930;8.112;2023-02-22T16:51:58;100481.56;;;11.77;84.44
35224;BME280;21367;51.930;8.112;2023-02-22T16:57:03;100481.59;;;11.53;86.35
35224;BME280;21367;51.930;8.112;2023-02-22T17:02:12;100480.03;;;11.56;86.80
35224;BME280;21367;51.930;8.112;2023-02-22T17:07:20;100478.44;;;11.36;87.18
35224;BME280;21367;51.930;8.112;2023-02-22T17:12:29;100477.56;;;11.35;87.45
35224;BME280;21367;51.930;8.112;2023-02-22T17:17:34;100480.03;;;11.08;87.68
35224;BME280;21367;51.930;8.112;2023-02-22T17:22:40;100487.09;;;11.14;88.50
35224;BME280;21367;51.930;8.112;2023-02-22T17:27:43;100481.00;;;11.12;88.63
35224;BME280;21367;51.930;8.112;2023-02-22T17:32:48;100486.22;;;11.14;88.43
35224;BME280;21367;51.930;8.112;2023-02-22T17:37:55;100488.84;;;11.39;86.38
35224;BME280;21367;51.930;8.112;2023-02-22T17:42:59;100499.13;;;11.15;87.33
35224;BME280;21367;51.930;8.112;2023-02-22T17:48:04;100497.22;;;11.33;87.05
35224;BME280;21367;51.930;8.112;2023-02-22T17:53:11;100506.72;;;10.88;88.44
35224;BME280;21367;51.930;8.112;2023-02-22T17:58:15;100508.88;;;10.77;88.78
35224;BME280;21367;51.930;8.112;2023-02-22T18:03:19;100510.16;;;10.88;89.10
35224;BME280;21367;51.930;8.112;2023-02-22T18:08:29;100510.41;;;10.95;88.92
35224;BME280;21367;51.930;8.112;2023-02-22T18:13:33;100515.94;;;10.60;90.49
35224;BME280;21367;51.930;8.112;2023-02-22T18:18:37;100518.00;;;10.47;91.25
35224;BME280;21367;51.930;8.112;2023-02-22T18:23:44;100514.09;;;10.56;90.66
35224;BME280;21367;51.930;8.112;2023-02-22T18:28:47;100522.47;;;10.52;91.87
35224;BME280;21367;51.930;8.112;2023-02-22T18:33:51;100517.53;;;10.15;93.16
35224;BME280;21367;51.930;8.112;2023-02-22T18:39:00;100519.34;;;10.17;93.43
35224;BME280;21367;51.930;8.112;2023-02-22T18:44:04;100524.03;;;9.86;94.88
35224;BME280;21367;51.930;8.112;2023-02-22T18:49:11;100521.72;;;9.92;93.79
35224;BME280;21367;51.930;8.112;2023-02-22T18:54:18;100516.91;;;10.00;92.90
35224;BME280;21367;51.930;8.112;2023-02-22T18:59:22;100521.25;;;10.01;94.51
35224;BME280;21367;51.930;8.112;2023-02-22T19:04:26;100519.78;;;10.07;92.47
35224;BME280;21367;51.930;8.112;2023-02-22T19:09:32;100522.16;;;10.03;93.61
35224;BME280;21367;51.930;8.112;2023-02-22T19:14:36;100516.25;;;9.63;94.70
35224;BME280;21367;51.930;8.112;2023-02-22T19:19:42;100523.75;;;9.78;94.04
35224;BME280;21367;51.930;8.112;2023-02-22T19:24:50;100516.19;;;9.62;94.73
35224;BME280;21367;51.930;8.112;2023-02-22T19:29:54;100529.22;;;9.66;93.74
35224;BME280;21367;51.930;8.112;2023-02-22T19:34:57;100533.28;;;9.42;94.33
35224;BME280;21367;51.930;8.112;2023-02-22T19:40:09;100539.63;;;9.31;95.50
35224;BME280;21367;51.930;8.112;2023-02-22T19:45:16;100527.47;;;9.26;94.89
35224;BME280;21367;51.930;8.112;2023-02-22T19:50:21;100530.63;;;9.21;95.07
35224;BME280;21367;51.930;8.112;2023-02-22T19:55:27;100533.88;;;9.17;95.56
35224;BME280;21367;51.930;8.112;2023-02-22T20:00:33;100543.19;;;9.15;94.71
35224;BME280;21367;51.930;8.112;2023-02-22T20:05:38;100541.47;;;8.96;95.87
35224;BME280;21367;51.930;8.112;2023-02-22T20:10:44;100544.03;;;8.96;95.67
35224;BME280;21367;51.930;8.112;2023-02-22T20:15:48;100540.47;;;8.92;95.59
35224;BME280;21367;51.930;8.112;2023-02-22T20:20:53;100550.38;;;8.85;96.11
35224;BME280;21367;51.930;8.112;2023-02-22T20:25:59;100548.88;;;8.90;94.79
35224;BME280;21367;51.930;8.112;2023-02-22T20:31:06;100562.22;;;8.83;96.35
35224;BME280;21367;51.930;8.112;2023-02-22T20:36:12;100560.09;;;8.92;95.20
35224;BME280;21367;51.930;8.112;2023-02-22T20:41:23;100560.63;;;8.67;96.73
35224;BME280;21367;51.930;8.112;2023-02-22T20:46:29;100554.09;;;8.73;95.62
35224;BME280;21367;51.930;8.112;2023-02-22T20:51:36;100561.75;;;8.72;95.47
35224;BME280;21367;51.930;8.112;2023-02-22T20:56:45;100571.25;;;8.39;96.58
35224;BME280;21367;51.930;8.112;2023-02-22T21:01:49;100576.75;;;8.30;97.02
35224;BME280;21367;51.930;8.112;2023-02-22T21:06:53;100577.06;;;8.18;97.33
35224;BME280;21367;51.930;8.112;2023-02-22T21:12:00;100578.19;;;8.41;97.07
35224;BME280;21367;51.930;8.112;2023-02-22T21:17:06;100578.28;;;8.08;97.56
35224;BME280;21367;51.930;8.112;2023-02-22T21:22:11;100584.13;;;8.24;96.95
35224;BME280;21367;51.930;8.112;2023-02-22T21:27:18;100586.28;;;7.98;97.33
35224;BME280;21367;51.930;8.112;2023-02-22T21:32:21;100584.47;;;7.79;98.53
35224;BME280;21367;51.930;8.112;2023-02-22T21:37:25;100595.84;;;7.68;100.00
35224;BME280;21367;51.930;8.112;2023-02-22T21:42:31;100597.25;;;7.79;100.00
35224;BME280;21367;51.930;8.112;2023-02-22T21:47:34;100593.81;;;7.79;100.00
35224;BME280;21367;51.930;8.112;2023-02-22T21:52:38;100592.09;;;7.78;100.00
35224;BME280;21367;51.930;8.112;2023-02-22T21:57:44;100597.38;;;7.99;100.00
35224;BME280;21367;51.930;8.112;2023-02-22T22:02:48;100584.72;;;8.18;100.00
35224;BME280;21367;51.930;8.112;2023-02-22T22:07:52;100592.56;;;8.21;100.00
35224;BME280;21367;51.930;8.112;2023-02-22T22:12:58;100593.75;;;8.28;100.00
35224;BME280;21367;51.930;8.112;2023-02-22T22:18:02;100594.03;;;8.34;100.00
35224;BME280;21367;51.930;8.112;2023-02-22T22:23:08;100593.41;;;8.38;100.00
35224;BME280;21367;51.930;8.112;2023-02-22T22:28:14;100600.16;;;8.20;100.00
35224;BME280;21367;51.930;8.112;2023-02-22T22:33:18;100602.19;;;8.09;100.00
35224;BME280;21367;51.930;8.112;2023-02-22T22:38:22;100609.81;;;8.25;100.00
35224;BME280;21367;51.930;8.112;2023-02-22T22:43:29;100602.50;;;8.33;100.00
35224;BME280;21367;51.930;8.112;2023-02-22T22:48:35;100609.91;;;8.43;100.00
35224;BME280;21367;51.930;8.112;2023-02-22T22:53:40;100621.91;;;8.28;100.00
35224;BME280;21367;51.930;8.112;2023-02-22T22:58:49;100617.88;;;8.15;100.00
35224;BME280;21367;51.930;8.112;2023-02-22T23:03:55;100623.66;;;8.29;100.00
35224;BME280;21367;51.930;8.112;2023-02-22T23:09:03;100629.63;;;7.95;100.00
35224;BME280;21367;51.930;8.112;2023-02-22T23:14:16;100636.16;;;8.23;100.00
35224;BME280;21367;51.930;8.112;2023-02-22T23:19:20;100629.91;;;8.34;100.00
35224;BME280;21367;51.930;8.112;2023-02-22T23:24:24;100627.91;;;8.63;100.00
35224;BME280;21367;51.930;8.112;2023-02-22T23:29:31;100633.03;;;8.63;100.00
35224;BME280;21367;51.930;8.112;2023-02-22T23:34:36;100630.41;;;8.79;100.00
35224;BME280;21367;51.930;8.112;2023-02-22T23:39:40;100627.25;;;8.85;100.00
35224;BME280;21367;51.930;8.112;2023-02-22T23:44:47;100639.91;;;8.82;100.00
35224;BME280;21367;51.930;8.112;2023-02-22T23:49:52;100634.41;;;9.10;100.00
35224;BME280;21367;51.930;8.112;2023-02-22T23:54:58;100640.94;;;8.85;100.00
